sensor_id;sensor_type;location;lat;lon;timestamp;P1;durP1;ratioP1;P2;durP2;ratioP2
19505;SDS011;9894;50.852;-0.140;2023-05-23T00:00:58;8.63;;;8.02;;
19505;SDS011;9894;50.852;-0.140;2023-05-23T00:03:25;8.07;;;7.57;;
19505;SDS011;9894;50.852;-0.140;2023-05-23T00:05:51;9.07;;;8.45;;
19505;SDS011;9894;50.852;-0.140;2023-05-23T00:08:17;7.80;;;7.30;;
19505;SDS011;9894;50.852;-0.140;2023-05-23T00:10:44;7.88;;;7.38;;
19505;SDS011;9894;50.852;-0.140;2023-05-23T00:13:10;8.30;;;7.70;;
19505;SDS011;9894;50.852;-0.140;2023-05-23T00:15:37;9.38;;;8.63;;
19505;SDS011;9894;50.852;-0.140;2023-05-23T00:18:05;7.72;;;7.20;;
19505;SDS011;9894;50.852;-0.140;2023-05-23T00:20:33;7.47;;;6.97;;
19505;SDS011;9894;50.852;-0.140;2023-05-23T00:23:00;7.10;;;6.65;;
19505;SDS011;9894;50.852;-0.140;2023-05-23T00:25:28;7.55;;;7.05;;
19505;SDS011;9894;50.852;-0.140;2023-05-23T00:27:58;7.88;;;7.35;;
19505;SDS011;9894;50.852;-0.140;2023-05-23T00:30:25;7.35;;;6.85;;
19505;SDS011;9894;50.852;-0.140;2023-05-23T00:32:57;8.05;;;7.38;;
19505;SDS011;9894;50.852;-0.140;2023-05-23T00:35:24;6.70;;;6.30;;
19505;SDS011;9894;50.852;-0.140;2023-05-23T00:37:51;6.65;;;6.20;;
19505;SDS011;9894;50.852;-0.140;2023-05-23T00:40:18;9.32;;;6.10;;
19505;SDS011;9894;50.852;-0.140;2023-05-23T00:42:44;8.00;;;7.40;;
19505;SDS011;9894;50.852;-0.140;2023-05-23T00:45:10;7.25;;;6.68;;
19505;SDS011;9894;50.852;-0.140;2023-05-23T00:47:40;6.82;;;6.43;;
19505;SDS011;9894;50.852;-0.140;2023-05-23T00:50:07;7.40;;;6.90;;
19505;SDS011;9894;50.852;-0.140;2023-05-23T00:52:36;7.00;;;6.40;;
19505;SDS011;9894;50.852;-0.140;2023-05-23T00:55:02;8.32;;;6.68;;
19505;SDS011;9894;50.852;-0.140;2023-05-23T00:57:29;6.65;;;6.22;;
19505;SDS011;9894;50.852;-0.140;2023-05-23T00:59:55;6.90;;;6.50;;
19505;SDS011;9894;50.852;-0.140;2023-05-23T01:02:21;6.32;;;5.93;;
19505;SDS011;9894;50.852;-0.140;2023-05-23T01:04:50;6.90;;;6.50;;
19505;SDS011;9894;50.852;-0.140;2023-05-23T01:07:20;6.30;;;5.90;;
19505;SDS011;9894;50.852;-0.140;2023-05-23T01:09:46;6.43;;;6.03;;
19505;SDS011;9894;50.852;-0.140;2023-05-23T01:12:19;6.00;;;5.60;;
19505;SDS011;9894;50.852;-0.140;2023-05-23T01:15:03;5.75;;;5.43;;
19505;SDS011;9894;50.852;-0.140;2023-05-23T01:17:37;6.15;;;5.75;;
19505;SDS011;9894;50.852;-0.140;2023-05-23T01:20:06;6.13;;;5.72;;
19505;SDS011;9894;50.852;-0.140;2023-05-23T01:22:47;6.25;;;5.85;;
19505;SDS011;9894;50.852;-0.140;2023-05-23T01:28:01;6.75;;;6.25;;
19505;SDS011;9894;50.852;-0.140;2023-05-23T01:30:29;5.50;;;5.20;;
19505;SDS011;9894;50.852;-0.140;2023-05-23T01:32:56;5.20;;;4.90;;
19505;SDS011;9894;50.852;-0.140;2023-05-23T01:35:24;4.97;;;4.68;;
19505;SDS011;9894;50.852;-0.140;2023-05-23T01:37:54;5.30;;;5.00;;
19505;SDS011;9894;50.852;-0.140;2023-05-23T01:40:24;5.20;;;4.90;;
19505;SDS011;9894;50.852;-0.140;2023-05-23T01:42:50;5.15;;;4.85;;
19505;SDS011;9894;50.852;-0.140;2023-05-23T01:45:17;5.03;;;4.72;;
19505;SDS011;9894;50.852;-0.140;2023-05-23T01:47:43;4.95;;;4.65;;
19505;SDS011;9894;50.852;-0.140;2023-05-23T01:50:11;5.07;;;4.78;;
19505;SDS011;9894;50.852;-0.140;2023-05-23T01:52:37;6.22;;;5.65;;
19505;SDS011;9894;50.852;-0.140;2023-05-23T01:55:04;4.80;;;4.43;;
19505;SDS011;9894;50.852;-0.140;2023-05-23T01:57:34;3.90;;;3.70;;
19505;SDS011;9894;50.852;-0.140;2023-05-23T02:00:00;4.57;;;4.28;;
19505;SDS011;9894;50.852;-0.140;2023-05-23T02:02:27;3.88;;;3.67;;
19505;SDS011;9894;50.852;-0.140;2023-05-23T02:04:54;3.97;;;3.70;;
19505;SDS011;9894;50.852;-0.140;2023-05-23T02:07:22;3.30;;;3.10;;
19505;SDS011;9894;50.852;-0.140;2023-05-23T02:09:48;3.40;;;3.20;;
19505;SDS011;9894;50.852;-0.140;2023-05-23T02:12:14;3.00;;;2.90;;
19505;SDS011;9894;50.852;-0.140;2023-05-23T02:14:40;3.08;;;2.97;;
19505;SDS011;9894;50.852;-0.140;2023-05-23T02:17:07;3.03;;;2.92;;
19505;SDS011;9894;50.852;-0.140;2023-05-23T02:19:36;2.65;;;2.55;;
19505;SDS011;9894;50.852;-0.140;2023-05-23T02:22:02;3.10;;;2.83;;
19505;SDS011;9894;50.852;-0.140;2023-05-23T02:24:28;2.20;;;2.10;;
19505;SDS011;9894;50.852;-0.140;2023-05-23T02:26:55;2.10;;;2.00;;
19505;SDS011;9894;50.852;-0.140;2023-05-23T02:29:21;2.35;;;2.25;;
19505;SDS011;9894;50.852;-0.140;2023-05-23T02:31:47;1.60;;;1.60;;
19505;SDS011;9894;50.852;-0.140;2023-05-23T02:34:13;1.80;;;1.70;;
19505;SDS011;9894;50.852;-0.140;2023-05-23T02:36:39;4.32;;;2.97;;
19505;SDS011;9894;50.852;-0.140;2023-05-23T02:39:05;1.88;;;1.67;;
19505;SDS011;9894;50.852;-0.140;2023-05-23T02:41:31;1.23;;;1.23;;
19505;SDS011;9894;50.852;-0.140;2023-05-23T02:43:57;1.02;;;1.02;;
19505;SDS011;9894;50.852;-0.140;2023-05-23T02:46:24;1.40;;;1.38;;
19505;SDS011;9894;50.852;-0.140;2023-05-23T02:48:50;0.90;;;0.90;;
19505;SDS011;9894;50.852;-0.140;2023-05-23T02:51:16;0.93;;;0.93;;
19505;SDS011;9894;50.852;-0.140;2023-05-23T02:53:42;1.00;;;1.00;;
19505;SDS011;9894;50.852;-0.140;2023-05-23T02:56:08;1.02;;;1.02;;
19505;SDS011;9894;50.852;-0.140;2023-05-23T02:58:34;0.73;;;0.73;;
19505;SDS011;9894;50.852;-0.140;2023-05-23T03:01:01;2.95;;;1.00;;
19505;SDS011;9894;50.852;-0.140;2023-05-23T03:03:30;0.40;;;0.40;;
19505;SDS011;9894;50.852;-0.140;2023-05-23T03:05:57;0.43;;;0.43;;
19505;SDS011;9894;50.852;-0.140;2023-05-23T03:08:23;0.40;;;0.40;;
19505;SDS011;9894;50.852;-0.140;2023-05-23T03:10:49;0.30;;;0.30;;
19505;SDS011;9894;50.852;-0.140;2023-05-23T03:13:16;0.20;;;0.20;;
19505;SDS011;9894;50.852;-0.140;2023-05-23T03:15:42;0.30;;;0.30;;
19505;SDS011;9894;50.852;-0.140;2023-05-23T03:18:08;0.20;;;0.20;;
19505;SDS011;9894;50.852;-0.140;2023-05-23T03:20:35;0.30;;;0.30;;
19505;SDS011;9894;50.852;-0.140;2023-05-23T03:23:07;2.65;;;0.82;;
19505;SDS011;9894;50.852;-0.140;2023-05-23T03:25:33;0.80;;;0.40;;
19505;SDS011;9894;50.852;-0.140;2023-05-23T03:27:59;0.20;;;0.20;;
19505;SDS011;9894;50.852;-0.140;2023-05-23T03:30:25;0.22;;;0.22;;
19505;SDS011;9894;50.852;-0.140;2023-05-23T03:32:52;1.67;;;1.58;;
19505;SDS011;9894;50.852;-0.140;2023-05-23T03:35:18;0.20;;;0.20;;
19505;SDS011;9894;50.852;-0.140;2023-05-23T03:37:44;2.38;;;0.50;;
19505;SDS011;9894;50.852;-0.140;2023-05-23T03:40:10;0.20;;;0.20;;
19505;SDS011;9894;50.852;-0.140;2023-05-23T03:42:37;0.30;;;0.30;;
19505;SDS011;9894;50.852;-0.140;2023-05-23T03:45:04;0.20;;;0.20;;
19505;SDS011;9894;50.852;-0.140;2023-05-23T03:47:30;1.02;;;0.65;;
19505;SDS011;9894;50.852;-0.140;2023-05-23T03:49:56;0.10;;;0.10;;
19505;SDS011;9894;50.852;-0.140;2023-05-23T03:52:22;0.30;;;0.30;;
19505;SDS011;9894;50.852;-0.140;2023-05-23T03:54:48;0.10;;;0.10;;
19505;SDS011;9894;50.852;-0.140;2023-05-23T03:57:14;0.43;;;0.43;;
19505;SDS011;9894;50.852;-0.140;2023-05-23T03:59:40;0.10;;;0.10;;
19505;SDS011;9894;50.852;-0.140;2023-05-23T04:02:06;0.10;;;0.10;;
19505;SDS011;9894;50.852;-0.140;2023-05-23T04:04:32;1.63;;;0.80;;
19505;SDS011;9894;50.852;-0.140;2023-05-23T04:06:59;0.57;;;0.57;;
19505;SDS011;9894;50.852;-0.140;2023-05-23T04:09:25;0.20;;;0.20;;
19505;SDS011;9894;50.852;-0.140;2023-05-23T04:11:51;2.78;;;2.65;;
19505;SDS011;9894;50.852;-0.140;2023-05-23T04:14:17;0.10;;;0.10;;
19505;SDS011;9894;50.852;-0.140;2023-05-23T04:16:48;0.30;;;0.30;;
19505;SDS011;9894;50.852;-0.140;2023-05-23T04:19:14;0.10;;;0.10;;
19505;SDS011;9894;50.852;-0.140;2023-05-23T04:21:40;1.05;;;0.95;;
19505;SDS011;9894;50.852;-0.140;2023-05-23T04:24:06;5.20;;;1.95;;
19505;SDS011;9894;50.852;-0.140;2023-05-23T04:26:33;0.50;;;0.50;;
19505;SDS011;9894;50.852;-0.140;2023-05-23T04:29:00;0.68;;;0.55;;
19505;SDS011;9894;50.852;-0.140;2023-05-23T04:31:27;0.10;;;0.10;;
19505;SDS011;9894;50.852;-0.140;2023-05-23T04:33:54;0.40;;;0.40;;
19505;SDS011;9894;50.852;-0.140;2023-05-23T04:36:20;0.13;;;0.13;;
19505;SDS011;9894;50.852;-0.140;2023-05-23T04:38:47;0.10;;;0.10;;
19505;SDS011;9894;50.852;-0.140;2023-05-23T04:41:14;1.38;;;1.30;;
19505;SDS011;9894;50.852;-0.140;2023-05-23T04:43:40;0.10;;;0.10;;
19505;SDS011;9894;50.852;-0.140;2023-05-23T04:46:09;2.92;;;1.10;;
19505;SDS011;9894;50.852;-0.140;2023-05-23T04:48:37;0.10;;;0.10;;
19505;SDS011;9894;50.852;-0.140;2023-05-23T04:51:04;1.85;;;0.52;;
19505;SDS011;9894;50.852;-0.140;2023-05-23T04:53:30;0.88;;;0.80;;
19505;SDS011;9894;50.852;-0.140;2023-05-23T04:55:56;1.27;;;0.35;;
19505;SDS011;9894;50.852;-0.140;2023-05-23T04:58:22;2.67;;;0.65;;
19505;SDS011;9894;50.852;-0.140;2023-05-23T05:00:48;0.10;;;0.10;;
19505;SDS011;9894;50.852;-0.140;2023-05-23T05:03:14;0.28;;;0.28;;
19505;SDS011;9894;50.852;-0.140;2023-05-23T05:05:40;1.95;;;0.90;;
19505;SDS011;9894;50.852;-0.140;2023-05-23T05:08:06;0.30;;;0.30;;
19505;SDS011;9894;50.852;-0.140;2023-05-23T05:10:32;0.30;;;0.30;;
19505;SDS011;9894;50.852;-0.140;2023-05-23T05:12:59;0.40;;;0.40;;
19505;SDS011;9894;50.852;-0.140;2023-05-23T05:15:25;0.47;;;0.30;;
19505;SDS011;9894;50.852;-0.140;2023-05-23T05:17:51;0.10;;;0.10;;
19505;SDS011;9894;50.852;-0.140;2023-05-23T05:20:17;0.20;;;0.20;;
19505;SDS011;9894;50.852;-0.140;2023-05-23T05:22:44;0.10;;;0.10;;
19505;SDS011;9894;50.852;-0.140;2023-05-23T05:25:10;0.10;;;0.10;;
19505;SDS011;9894;50.852;-0.140;2023-05-23T05:27:37;0.40;;;0.40;;
19505;SDS011;9894;50.852;-0.140;2023-05-23T05:30:07;0.75;;;0.75;;
19505;SDS011;9894;50.852;-0.140;2023-05-23T05:32:33;0.52;;;0.52;;
19505;SDS011;9894;50.852;-0.140;2023-05-23T05:35:00;0.10;;;0.10;;
19505;SDS011;9894;50.852;-0.140;2023-05-23T05:37:26;0.17;;;0.17;;
19505;SDS011;9894;50.852;-0.140;2023-05-23T05:39:53;0.32;;;0.32;;
19505;SDS011;9894;50.852;-0.140;2023-05-23T05:42:19;0.47;;;0.47;;
19505;SDS011;9894;50.852;-0.140;2023-05-23T05:44:48;2.17;;;1.33;;
19505;SDS011;9894;50.852;-0.140;2023-05-23T05:47:14;0.10;;;0.10;;
19505;SDS011;9894;50.852;-0.140;2023-05-23T05:49:41;1.10;;;1.02;;
19505;SDS011;9894;50.852;-0.140;2023-05-23T05:52:07;0.80;;;0.70;;
19505;SDS011;9894;50.852;-0.140;2023-05-23T05:54:33;0.52;;;0.45;;
19505;SDS011;9894;50.852;-0.140;2023-05-23T05:57:00;8.57;;;7.78;;
19505;SDS011;9894;50.852;-0.140;2023-05-23T05:59:26;0.30;;;0.30;;
19505;SDS011;9894;50.852;-0.140;2023-05-23T06:01:52;0.10;;;0.10;;
19505;SDS011;9894;50.852;-0.140;2023-05-23T06:04:18;0.85;;;0.38;;
19505;SDS011;9894;50.852;-0.140;2023-05-23T06:06:44;0.30;;;0.30;;
19505;SDS011;9894;50.852;-0.140;2023-05-23T06:09:10;2.25;;;0.75;;
19505;SDS011;9894;50.852;-0.140;2023-05-23T06:11:37;0.10;;;0.10;;
19505;SDS011;9894;50.852;-0.140;2023-05-23T06:14:05;0.10;;;0.10;;
19505;SDS011;9894;50.852;-0.140;2023-05-23T06:16:31;0.10;;;0.10;;
19505;SDS011;9894;50.852;-0.140;2023-05-23T06:18:57;0.10;;;0.10;;
19505;SDS011;9894;50.852;-0.140;2023-05-23T06:21:24;0.10;;;0.10;;
19505;SDS011;9894;50.852;-0.140;2023-05-23T06:23:50;1.08;;;0.70;;
19505;SDS011;9894;50.852;-0.140;2023-05-23T06:26:16;0.10;;;0.10;;
19505;SDS011;9894;50.852;-0.140;2023-05-23T06:28:42;4.30;;;1.75;;
19505;SDS011;9894;50.852;-0.140;2023-05-23T06:31:08;0.25;;;0.25;;
19505;SDS011;9894;50.852;-0.140;2023-05-23T06:33:34;2.17;;;1.75;;
19505;SDS011;9894;50.852;-0.140;2023-05-23T06:36:01;3.53;;;0.43;;
19505;SDS011;9894;50.852;-0.140;2023-05-23T06:38:34;0.20;;;0.20;;
19505;SDS011;9894;50.852;-0.140;2023-05-23T06:41:00;1.15;;;0.93;;
19505;SDS011;9894;50.852;-0.140;2023-05-23T06:43:27;0.10;;;0.10;;
19505;SDS011;9894;50.852;-0.140;2023-05-23T06:45:53;0.10;;;0.10;;
19505;SDS011;9894;50.852;-0.140;2023-05-23T06:48:20;0.10;;;0.10;;
19505;SDS011;9894;50.852;-0.140;2023-05-23T06:50:46;0.03;;;0.03;;
19505;SDS011;9894;50.852;-0.140;2023-05-23T06:53:12;2.63;;;0.60;;
19505;SDS011;9894;50.852;-0.140;2023-05-23T06:55:38;0.10;;;0.10;;
19505;SDS011;9894;50.852;-0.140;2023-05-23T06:58:04;0.25;;;0.25;;
19505;SDS011;9894;50.852;-0.140;2023-05-23T07:00:30;0.30;;;0.30;;
19505;SDS011;9894;50.852;-0.140;2023-05-23T07:02:56;0.10;;;0.10;;
19505;SDS011;9894;50.852;-0.140;2023-05-23T07:05:27;0.52;;;0.40;;
19505;SDS011;9894;50.852;-0.140;2023-05-23T07:07:53;0.55;;;0.40;;
19505;SDS011;9894;50.852;-0.140;2023-05-23T07:10:20;0.65;;;0.65;;
19505;SDS011;9894;50.852;-0.140;2023-05-23T07:12:46;0.22;;;0.22;;
19505;SDS011;9894;50.852;-0.140;2023-05-23T07:15:12;0.22;;;0.22;;
19505;SDS011;9894;50.852;-0.140;2023-05-23T07:17:39;0.30;;;0.30;;
19505;SDS011;9894;50.852;-0.140;2023-05-23T07:20:05;0.73;;;0.73;;
19505;SDS011;9894;50.852;-0.140;2023-05-23T07:22:32;0.20;;;0.20;;
19505;SDS011;9894;50.852;-0.140;2023-05-23T07:24:58;0.25;;;0.25;;
19505;SDS011;9894;50.852;-0.140;2023-05-23T07:27:25;0.45;;;0.45;;
19505;SDS011;9894;50.852;-0.140;2023-05-23T07:29:51;0.70;;;0.70;;
19505;SDS011;9894;50.852;-0.140;2023-05-23T07:32:17;1.00;;;1.00;;
19505;SDS011;9894;50.852;-0.140;2023-05-23T07:34:44;1.50;;;1.50;;
19505;SDS011;9894;50.852;-0.140;2023-05-23T07:37:10;2.08;;;1.98;;
19505;SDS011;9894;50.852;-0.140;2023-05-23T07:39:36;2.28;;;2.15;;
19505;SDS011;9894;50.852;-0.140;2023-05-23T07:42:02;3.40;;;3.20;;
19505;SDS011;9894;50.852;-0.140;2023-05-23T07:44:28;4.43;;;4.13;;
19505;SDS011;9894;50.852;-0.140;2023-05-23T07:46:54;5.88;;;5.47;;
19505;SDS011;9894;50.852;-0.140;2023-05-23T07:49:20;6.90;;;6.50;;
19505;SDS011;9894;50.852;-0.140;2023-05-23T07:51:47;8.88;;;8.27;;
19505;SDS011;9894;50.852;-0.140;2023-05-23T07:54:13;9.27;;;8.65;;
19505;SDS011;9894;50.852;-0.140;2023-05-23T07:56:41;8.52;;;7.93;;
19505;SDS011;9894;50.852;-0.140;2023-05-23T07:59:10;9.23;;;8.63;;
19505;SDS011;9894;50.852;-0.140;2023-05-23T08:01:37;9.20;;;8.60;;
19505;SDS011;9894;50.852;-0.140;2023-05-23T08:04:04;9.23;;;8.63;;
19505;SDS011;9894;50.852;-0.140;2023-05-23T08:06:31;10.63;;;9.93;;
19505;SDS011;9894;50.852;-0.140;2023-05-23T08:08:57;10.27;;;9.57;;
19505;SDS011;9894;50.852;-0.140;2023-05-23T08:11:23;11.90;;;11.10;;
19505;SDS011;9894;50.852;-0.140;2023-05-23T08:13:51;11.38;;;10.57;;
19505;SDS011;9894;50.852;-0.140;2023-05-23T08:16:17;12.57;;;11.75;;
19505;SDS011;9894;50.852;-0.140;2023-05-23T08:18:43;13.05;;;12.15;;
19505;SDS011;9894;50.852;-0.140;2023-05-23T08:21:10;14.55;;;13.55;;
19505;SDS011;9894;50.852;-0.140;2023-05-23T08:23:36;13.20;;;12.30;;
19505;SDS011;9894;50.852;-0.140;2023-05-23T08:26:02;12.90;;;12.00;;
19505;SDS011;9894;50.852;-0.140;2023-05-23T08:28:28;12.90;;;12.00;;
19505;SDS011;9894;50.852;-0.140;2023-05-23T08:30:54;13.00;;;12.10;;
19505;SDS011;9894;50.852;-0.140;2023-05-23T08:33:21;12.75;;;11.85;;
19505;SDS011;9894;50.852;-0.140;2023-05-23T08:35:47;11.02;;;10.32;;
19505;SDS011;9894;50.852;-0.140;2023-05-23T08:38:13;10.32;;;9.63;;
19505;SDS011;9894;50.852;-0.140;2023-05-23T08:40:39;11.00;;;10.20;;
19505;SDS011;9894;50.852;-0.140;2023-05-23T08:43:07;10.25;;;9.55;;
19505;SDS011;9894;50.852;-0.140;2023-05-23T08:45:34;12.18;;;11.27;;
19505;SDS011;9894;50.852;-0.140;2023-05-23T08:48:01;12.20;;;10.52;;
19505;SDS011;9894;50.852;-0.140;2023-05-23T08:50:29;10.15;;;9.45;;
19505;SDS011;9894;50.852;-0.140;2023-05-23T08:52:56;8.93;;;8.32;;
19505;SDS011;9894;50.852;-0.140;2023-05-23T08:55:22;9.90;;;9.20;;
19505;SDS011;9894;50.852;-0.140;2023-05-23T08:57:52;9.40;;;8.80;;
19505;SDS011;9894;50.852;-0.140;2023-05-23T09:00:18;9.45;;;8.85;;
19505;SDS011;9894;50.852;-0.140;2023-05-23T09:02:45;9.13;;;8.52;;
19505;SDS011;9894;50.852;-0.140;2023-05-23T09:05:11;9.80;;;9.10;;
19505;SDS011;9894;50.852;-0.140;2023-05-23T09:07:39;9.45;;;8.77;;
19505;SDS011;9894;50.852;-0.140;2023-05-23T09:10:05;8.90;;;8.30;;
19505;SDS011;9894;50.852;-0.140;2023-05-23T09:12:32;9.50;;;8.80;;
19505;SDS011;9894;50.852;-0.140;2023-05-23T09:15:00;9.30;;;8.70;;
19505;SDS011;9894;50.852;-0.140;2023-05-23T09:17:26;10.02;;;9.32;;
19505;SDS011;9894;50.852;-0.140;2023-05-23T09:19:52;8.77;;;8.18;;
19505;SDS011;9894;50.852;-0.140;2023-05-23T09:22:25;9.27;;;8.68;;
19505;SDS011;9894;50.852;-0.140;2023-05-23T09:24:52;9.38;;;8.77;;
19505;SDS011;9894;50.852;-0.140;2023-05-23T09:27:19;8.80;;;8.20;;
19505;SDS011;9894;50.852;-0.140;2023-05-23T09:29:45;9.68;;;8.98;;
19505;SDS011;9894;50.852;-0.140;2023-05-23T09:34:53;9.00;;;8.40;;
19505;SDS011;9894;50.852;-0.140;2023-05-23T09:37:20;9.68;;;8.98;;
19505;SDS011;9894;50.852;-0.140;2023-05-23T09:39:48;9.10;;;8.50;;
19505;SDS011;9894;50.852;-0.140;2023-05-23T09:42:21;8.85;;;8.25;;
19505;SDS011;9894;50.852;-0.140;2023-05-23T09:44:48;9.55;;;8.88;;
19505;SDS011;9894;50.852;-0.140;2023-05-23T09:47:14;9.77;;;9.07;;
19505;SDS011;9894;50.852;-0.140;2023-05-23T09:49:45;8.70;;;8.10;;
19505;SDS011;9894;50.852;-0.140;2023-05-23T09:52:12;9.15;;;8.38;;
19505;SDS011;9894;50.852;-0.140;2023-05-23T09:54:38;8.23;;;7.70;;
19505;SDS011;9894;50.852;-0.140;2023-05-23T09:57:09;9.38;;;8.68;;
19505;SDS011;9894;50.852;-0.140;2023-05-23T09:59:39;9.50;;;8.90;;
19505;SDS011;9894;50.852;-0.140;2023-05-23T10:02:06;10.93;;;10.00;;
19505;SDS011;9894;50.852;-0.140;2023-05-23T10:04:33;9.65;;;9.00;;
19505;SDS011;9894;50.852;-0.140;2023-05-23T10:09:35;9.57;;;8.93;;
19505;SDS011;9894;50.852;-0.140;2023-05-23T10:14:56;9.15;;;8.55;;
19505;SDS011;9894;50.852;-0.140;2023-05-23T10:20:10;9.73;;;8.93;;
19505;SDS011;9894;50.852;-0.140;2023-05-23T10:22:39;9.27;;;8.68;;
19505;SDS011;9894;50.852;-0.140;2023-05-23T10:25:07;10.68;;;9.88;;
19505;SDS011;9894;50.852;-0.140;2023-05-23T10:27:37;9.65;;;8.95;;
19505;SDS011;9894;50.852;-0.140;2023-05-23T10:30:04;9.48;;;8.88;;
19505;SDS011;9894;50.852;-0.140;2023-05-23T10:32:31;11.30;;;10.50;;
19505;SDS011;9894;50.852;-0.140;2023-05-23T10:37:48;11.13;;;10.00;;
19505;SDS011;9894;50.852;-0.140;2023-05-23T10:43:31;10.50;;;9.80;;
19505;SDS011;9894;50.852;-0.140;2023-05-23T10:45:39;9.38;;;8.77;;
19505;SDS011;9894;50.852;-0.140;2023-05-23T10:48:23;10.52;;;9.82;;
19505;SDS011;9894;50.852;-0.140;2023-05-23T10:51:00;9.85;;;9.15;;
19505;SDS011;9894;50.852;-0.140;2023-05-23T10:53:28;8.63;;;8.02;;
19505;SDS011;9894;50.852;-0.140;2023-05-23T10:55:55;9.00;;;8.40;;
19505;SDS011;9894;50.852;-0.140;2023-05-23T10:58:21;9.90;;;9.20;;
19505;SDS011;9894;50.852;-0.140;2023-05-23T11:00:54;9.10;;;8.50;;
19505;SDS011;9894;50.852;-0.140;2023-05-23T11:05:57;9.07;;;8.48;;
19505;SDS011;9894;50.852;-0.140;2023-05-23T11:08:25;8.60;;;8.00;;
19505;SDS011;9894;50.852;-0.140;2023-05-23T11:10:52;8.80;;;8.20;;
19505;SDS011;9894;50.852;-0.140;2023-05-23T11:13:21;9.57;;;8.85;;
19505;SDS011;9894;50.852;-0.140;2023-05-23T11:15:47;8.60;;;8.00;;
19505;SDS011;9894;50.852;-0.140;2023-05-23T11:18:25;8.45;;;7.85;;
19505;SDS011;9894;50.852;-0.140;2023-05-23T11:20:51;8.50;;;7.90;;
19505;SDS011;9894;50.852;-0.140;2023-05-23T11:23:18;8.75;;;8.07;;
19505;SDS011;9894;50.852;-0.140;2023-05-23T11:25:45;8.68;;;8.07;;
19505;SDS011;9894;50.852;-0.140;2023-05-23T11:28:13;8.60;;;8.00;;
19505;SDS011;9894;50.852;-0.140;2023-05-23T11:30:40;8.10;;;7.60;;
19505;SDS011;9894;50.852;-0.140;2023-05-23T11:33:10;8.77;;;8.18;;
19505;SDS011;9894;50.852;-0.140;2023-05-23T11:35:41;8.85;;;8.18;;
19505;SDS011;9894;50.852;-0.140;2023-05-23T11:38:07;8.35;;;7.75;;
19505;SDS011;9894;50.852;-0.140;2023-05-23T11:40:37;8.23;;;7.63;;
19505;SDS011;9894;50.852;-0.140;2023-05-23T11:43:08;9.20;;;8.60;;
19505;SDS011;9894;50.852;-0.140;2023-05-23T11:45:35;8.15;;;7.55;;
19505;SDS011;9894;50.852;-0.140;2023-05-23T11:48:06;10.00;;;9.30;;
19505;SDS011;9894;50.852;-0.140;2023-05-23T11:50:32;7.90;;;7.40;;
19505;SDS011;9894;50.852;-0.140;2023-05-23T11:52:58;8.70;;;8.10;;
19505;SDS011;9894;50.852;-0.140;2023-05-23T11:55:25;8.15;;;7.65;;
19505;SDS011;9894;50.852;-0.140;2023-05-23T11:57:54;9.82;;;9.13;;
19505;SDS011;9894;50.852;-0.140;2023-05-23T12:00:20;9.43;;;8.52;;
19505;SDS011;9894;50.852;-0.140;2023-05-23T12:02:46;10.70;;;10.00;;
19505;SDS011;9894;50.852;-0.140;2023-05-23T12:05:13;10.00;;;9.10;;
19505;SDS011;9894;50.852;-0.140;2023-05-23T12:07:40;9.02;;;8.30;;
19505;SDS011;9894;50.852;-0.140;2023-05-23T12:10:06;9.52;;;8.93;;
19505;SDS011;9894;50.852;-0.140;2023-05-23T12:12:33;9.93;;;9.23;;
19505;SDS011;9894;50.852;-0.140;2023-05-23T12:14:59;9.85;;;9.15;;
19505;SDS011;9894;50.852;-0.140;2023-05-23T12:17:25;8.95;;;8.35;;
19505;SDS011;9894;50.852;-0.140;2023-05-23T12:19:51;9.18;;;8.57;;
19505;SDS011;9894;50.852;-0.140;2023-05-23T12:22:21;9.40;;;8.80;;
19505;SDS011;9894;50.852;-0.140;2023-05-23T12:24:54;8.82;;;8.23;;
19505;SDS011;9894;50.852;-0.140;2023-05-23T12:27:25;9.65;;;9.00;;
19505;SDS011;9894;50.852;-0.140;2023-05-23T12:30:03;11.55;;;10.75;;
19505;SDS011;9894;50.852;-0.140;2023-05-23T12:32:30;10.23;;;9.52;;
19505;SDS011;9894;50.852;-0.140;2023-05-23T12:34:56;8.75;;;8.15;;
19505;SDS011;9894;50.852;-0.140;2023-05-23T12:37:22;9.43;;;8.77;;
19505;SDS011;9894;50.852;-0.140;2023-05-23T12:39:49;9.95;;;9.07;;
19505;SDS011;9894;50.852;-0.140;2023-05-23T12:42:16;9.25;;;8.65;;
19505;SDS011;9894;50.852;-0.140;2023-05-23T12:44:42;9.23;;;8.63;;
19505;SDS011;9894;50.852;-0.140;2023-05-23T12:47:10;10.07;;;9.38;;
19505;SDS011;9894;50.852;-0.140;2023-05-23T12:49:36;9.40;;;8.80;;
19505;SDS011;9894;50.852;-0.140;2023-05-23T12:52:02;9.05;;;8.35;;
19505;SDS011;9894;50.852;-0.140;2023-05-23T12:54:28;8.70;;;8.10;;
19505;SDS011;9894;50.852;-0.140;2023-05-23T12:56:54;9.30;;;8.70;;
19505;SDS011;9894;50.852;-0.140;2023-05-23T12:59:21;10.93;;;10.13;;
19505;SDS011;9894;50.852;-0.140;2023-05-23T13:01:47;9.15;;;8.55;;
19505;SDS011;9894;50.852;-0.140;2023-05-23T13:04:13;8.60;;;8.00;;
19505;SDS011;9894;50.852;-0.140;2023-05-23T13:06:39;8.88;;;8.27;;
19505;SDS011;9894;50.852;-0.140;2023-05-23T13:09:05;8.88;;;8.27;;
19505;SDS011;9894;50.852;-0.140;2023-05-23T13:11:32;9.07;;;8.48;;
19505;SDS011;9894;50.852;-0.140;2023-05-23T13:13:58;9.98;;;9.27;;
19505;SDS011;9894;50.852;-0.140;2023-05-23T13:16:24;9.50;;;8.80;;
19505;SDS011;9894;50.852;-0.140;2023-05-23T13:18:51;9.10;;;8.50;;
19505;SDS011;9894;50.852;-0.140;2023-05-23T13:21:17;9.13;;;8.52;;
19505;SDS011;9894;50.852;-0.140;2023-05-23T13:23:43;8.60;;;8.00;;
19505;SDS011;9894;50.852;-0.140;2023-05-23T13:26:09;11.27;;;8.35;;
19505;SDS011;9894;50.852;-0.140;2023-05-23T13:28:36;9.90;;;9.20;;
19505;SDS011;9894;50.852;-0.140;2023-05-23T13:31:02;8.27;;;7.78;;
19505;SDS011;9894;50.852;-0.140;2023-05-23T13:33:28;28.48;;;9.10;;
19505;SDS011;9894;50.852;-0.140;2023-05-23T13:35:55;8.55;;;7.95;;
19505;SDS011;9894;50.852;-0.140;2023-05-23T13:38:21;7.30;;;6.80;;
19505;SDS011;9894;50.852;-0.140;2023-05-23T13:40:47;8.80;;;8.20;;
19505;SDS011;9894;50.852;-0.140;2023-05-23T13:43:15;7.63;;;7.13;;
19505;SDS011;9894;50.852;-0.140;2023-05-23T13:45:42;12.68;;;9.02;;
19505;SDS011;9894;50.852;-0.140;2023-05-23T13:48:11;8.90;;;8.30;;
19505;SDS011;9894;50.852;-0.140;2023-05-23T13:50:37;7.70;;;7.20;;
19505;SDS011;9894;50.852;-0.140;2023-05-23T13:53:03;9.13;;;8.30;;
19505;SDS011;9894;50.852;-0.140;2023-05-23T13:55:36;8.02;;;7.53;;
19505;SDS011;9894;50.852;-0.140;2023-05-23T13:58:02;8.00;;;7.50;;
19505;SDS011;9894;50.852;-0.140;2023-05-23T14:00:28;7.90;;;7.40;;
19505;SDS011;9894;50.852;-0.140;2023-05-23T14:02:54;9.95;;;9.25;;
19505;SDS011;9894;50.852;-0.140;2023-05-23T14:05:20;7.80;;;7.20;;
19505;SDS011;9894;50.852;-0.140;2023-05-23T14:07:47;8.10;;;7.60;;
19505;SDS011;9894;50.852;-0.140;2023-05-23T14:10:13;9.23;;;8.63;;
19505;SDS011;9894;50.852;-0.140;2023-05-23T14:12:41;8.82;;;8.23;;
19505;SDS011;9894;50.852;-0.140;2023-05-23T14:15:07;9.30;;;8.70;;
19505;SDS011;9894;50.852;-0.140;2023-05-23T14:17:34;8.30;;;7.70;;
19505;SDS011;9894;50.852;-0.140;2023-05-23T14:20:01;8.27;;;7.68;;
19505;SDS011;9894;50.852;-0.140;2023-05-23T14:22:27;8.02;;;7.53;;
19505;SDS011;9894;50.852;-0.140;2023-05-23T14:24:53;9.38;;;7.60;;
19505;SDS011;9894;50.852;-0.140;2023-05-23T14:27:19;8.05;;;7.55;;
19505;SDS011;9894;50.852;-0.140;2023-05-23T14:29:45;9.00;;;8.40;;
19505;SDS011;9894;50.852;-0.140;2023-05-23T14:32:12;7.88;;;7.38;;
19505;SDS011;9894;50.852;-0.140;2023-05-23T14:34:39;8.60;;;7.90;;
19505;SDS011;9894;50.852;-0.140;2023-05-23T14:37:05;8.05;;;7.55;;
19505;SDS011;9894;50.852;-0.140;2023-05-23T14:39:31;8.75;;;8.15;;
19505;SDS011;9894;50.852;-0.140;2023-05-23T14:41:57;8.00;;;7.50;;
19505;SDS011;9894;50.852;-0.140;2023-05-23T14:44:24;8.68;;;7.95;;
19505;SDS011;9894;50.852;-0.140;2023-05-23T14:46:50;8.50;;;7.80;;
19505;SDS011;9894;50.852;-0.140;2023-05-23T14:49:16;10.05;;;9.35;;
19505;SDS011;9894;50.852;-0.140;2023-05-23T14:51:42;7.70;;;7.20;;
19505;SDS011;9894;50.852;-0.140;2023-05-23T14:54:08;7.70;;;7.20;;
19505;SDS011;9894;50.852;-0.140;2023-05-23T14:56:35;7.70;;;7.20;;
19505;SDS011;9894;50.852;-0.140;2023-05-23T14:59:05;7.68;;;7.18;;
19505;SDS011;9894;50.852;-0.140;2023-05-23T15:01:32;8.48;;;7.88;;
19505;SDS011;9894;50.852;-0.140;2023-05-23T15:03:58;8.45;;;7.85;;
19505;SDS011;9894;50.852;-0.140;2023-05-23T15:06:24;9.95;;;9.25;;